createdAt,value
2022-09-18T00:00:00.918Z,0.00
2022-09-18T00:01:00.911Z,0.00
2022-09-18T00:02:00.957Z,0.00
2022-09-18T00:03:01.081Z,0.00
2022-09-18T00:04:00.878Z,0.00
2022-09-18T00:05:00.857Z,0.00
2022-09-18T00:06:00.847Z,0.00
2022-09-18T00:07:00.835Z,0.00
2022-09-18T00:08:00.845Z,0.00
2022-09-18T00:09:00.872Z,0.00
2022-09-18T00:10:00.800Z,0.00
2022-09-18T00:11:00.792Z,0.00
2022-09-18T00:12:00.809Z,0.00
2022-09-18T00:13:00.766Z,0.00
2022-09-18T00:14:00.758Z,0.00
2022-09-18T00:15:00.742Z,0.00
2022-09-18T00:16:00.814Z,0.00
2022-09-18T00:17:07.015Z,0.00
2022-09-18T00:18:01.717Z,0.00
2022-09-18T00:19:00.810Z,0.00
2022-09-18T00:20:00.687Z,0.00
2022-09-18T00:21:00.672Z,0.00
2022-09-18T00:22:00.683Z,0.00
2022-09-18T00:23:00.668Z,0.00
2022-09-18T00:24:00.695Z,0.00
2022-09-18T00:25:00.626Z,0.00
2022-09-18T00:26:00.616Z,0.00
2022-09-18T00:27:00.623Z,0.00
2022-09-18T00:28:00.596Z,0.00
2022-09-18T00:29:00.599Z,0.00
2022-09-18T00:30:00.570Z,0.00
2022-09-18T00:31:00.606Z,0.00
2022-09-18T00:32:00.569Z,0.00
2022-09-18T00:33:00.533Z,0.00
2022-09-18T00:34:00.524Z,0.00
2022-09-18T00:35:00.631Z,0.00
2022-09-18T00:36:00.522Z,0.00
2022-09-18T00:37:00.524Z,0.00
2022-09-18T00:38:00.476Z,0.00
2022-09-18T00:39:00.474Z,0.00
2022-09-18T00:40:00.494Z,0.00
2022-09-18T00:41:00.448Z,0.00
2022-09-18T00:42:00.455Z,0.00
2022-09-18T00:43:00.417Z,0.00
2022-09-18T00:44:00.414Z,0.00
2022-09-18T00:45:00.393Z,0.00
2022-09-18T00:46:00.386Z,0.00
2022-09-18T00:47:00.392Z,0.00
2022-09-18T00:48:00.384Z,0.00
2022-09-18T00:49:00.348Z,0.00
2022-09-18T00:50:00.340Z,0.00
2022-09-18T00:51:00.437Z,0.00
2022-09-18T00:52:00.320Z,0.00
2022-09-18T00:53:00.363Z,0.00
2022-09-18T00:54:00.328Z,0.00
2022-09-18T00:55:00.308Z,0.00
2022-09-18T00:56:00.269Z,0.00
2022-09-18T00:57:00.255Z,0.00
2022-09-18T00:58:00.250Z,0.00
2022-09-18T00:59:00.349Z,0.00
2022-09-18T01:00:00.242Z,0.00
2022-09-18T01:01:00.269Z,0.00
2022-09-18T01:02:00.309Z,0.00
2022-09-18T01:03:00.184Z,0.00
2022-09-18T01:04:00.206Z,0.00
2022-09-18T01:05:00.179Z,0.00
2022-09-18T01:06:00.148Z,0.00
2022-09-18T01:07:00.251Z,0.00
2022-09-18T01:08:00.156Z,0.00
2022-09-18T01:09:00.120Z,0.00
2022-09-18T01:10:00.134Z,0.00
2022-09-18T01:11:00.114Z,0.00
2022-09-18T01:12:00.079Z,0.00
2022-09-18T01:13:00.071Z,0.00
2022-09-18T01:14:00.075Z,0.00
2022-09-18T01:15:00.072Z,0.00
2022-09-18T01:16:00.175Z,0.00
2022-09-18T01:17:00.030Z,0.00
2022-09-18T01:18:00.018Z,0.00
2022-09-18T01:19:00.008Z,0.00
2022-09-18T01:19:59.999Z,0.00
2022-09-18T01:21:00.007Z,0.00
2022-09-18T01:21:59.965Z,0.00
2022-09-18T01:23:00.074Z,0.00
2022-09-18T01:23:59.940Z,0.00
2022-09-18T01:24:59.954Z,0.00
2022-09-18T01:25:59.950Z,0.00
2022-09-18T01:26:59.907Z,0.00
2022-09-18T01:27:59.893Z,0.00
2022-09-18T01:28:59.885Z,0.00
2022-09-18T01:29:59.876Z,0.00
2022-09-18T01:30:59.905Z,0.00
2022-09-18T01:31:59.870Z,0.00
2022-09-18T01:32:59.839Z,0.00
2022-09-18T01:33:59.827Z,0.00
2022-09-18T01:34:59.840Z,0.00
2022-09-18T01:35:59.805Z,0.00
2022-09-18T01:36:59.817Z,0.00
2022-09-18T01:37:59.784Z,0.00
2022-09-18T01:38:59.903Z,0.00
2022-09-18T01:39:59.857Z,0.00
2022-09-18T01:40:59.747Z,0.00
2022-09-18T01:41:59.735Z,0.00
2022-09-18T01:42:59.759Z,0.00
2022-09-18T01:43:59.714Z,0.00
2022-09-18T01:44:59.701Z,0.00
2022-09-18T01:45:59.693Z,0.00
2022-09-18T01:46:59.726Z,0.00
2022-09-18T01:47:59.669Z,0.00
2022-09-18T01:48:59.659Z,0.00
2022-09-18T01:49:59.644Z,0.00
2022-09-18T01:50:59.633Z,0.00
2022-09-18T01:51:59.643Z,0.00
2022-09-18T01:52:59.615Z,0.00
2022-09-18T01:53:59.716Z,0.00
2022-09-18T01:54:59.700Z,0.00
2022-09-18T01:55:59.579Z,0.00
2022-09-18T01:56:59.722Z,0.00
2022-09-18T01:57:59.556Z,0.00
2022-09-18T01:58:59.540Z,0.00
2022-09-18T01:59:59.534Z,0.00
2022-09-18T02:00:59.548Z,0.00
2022-09-18T02:01:59.675Z,0.00
2022-09-18T02:02:59.625Z,0.00
2022-09-18T02:03:59.500Z,0.00
2022-09-18T02:04:59.473Z,0.00
2022-09-18T02:05:59.463Z,0.00
2022-09-18T02:06:59.468Z,0.00
2022-09-18T02:07:59.440Z,0.00
2022-09-18T02:08:59.516Z,0.00
2022-09-18T02:09:59.418Z,0.00
2022-09-18T02:10:59.519Z,0.00
2022-09-18T02:11:59.415Z,0.00
2022-09-18T02:12:59.465Z,0.00
2022-09-18T02:13:59.373Z,0.00
2022-09-18T02:14:59.358Z,0.00
2022-09-18T02:15:59.389Z,0.00
2022-09-18T02:16:59.344Z,0.00
2022-09-18T02:17:59.349Z,0.00
2022-09-18T02:18:59.312Z,0.00
2022-09-18T02:19:59.301Z,0.00
2022-09-18T02:20:59.288Z,0.00
2022-09-18T02:21:59.287Z,0.00
2022-09-18T02:22:59.291Z,0.00
2022-09-18T02:23:59.334Z,0.00
2022-09-18T02:24:59.246Z,0.00
2022-09-18T02:25:59.248Z,0.00
2022-09-18T02:26:59.335Z,0.00
2022-09-18T02:27:59.235Z,0.00
2022-09-18T02:28:59.219Z,0.00
2022-09-18T02:29:59.195Z,0.00
2022-09-18T02:30:59.249Z,0.00
2022-09-18T02:31:59.164Z,0.00
2022-09-18T02:32:59.179Z,0.00
2022-09-18T02:33:59.185Z,0.00
2022-09-18T02:34:59.130Z,0.00
2022-09-18T02:35:59.123Z,0.00
2022-09-18T02:36:59.112Z,0.00
2022-09-18T02:37:59.119Z,0.00
2022-09-18T02:38:59.133Z,0.00
2022-09-18T02:39:59.121Z,0.00
2022-09-18T02:40:59.063Z,0.00
2022-09-18T02:41:59.074Z,0.00
2022-09-18T02:42:59.155Z,0.00
2022-09-18T02:43:59.089Z,0.00
2022-09-18T02:44:59.062Z,0.00
2022-09-18T02:45:59.215Z,0.00
2022-09-18T02:46:59.008Z,0.00
2022-09-18T02:47:58.992Z,0.00
2022-09-18T02:48:58.977Z,0.00
2022-09-18T02:49:58.992Z,0.00
2022-09-18T02:50:58.975Z,0.00
2022-09-18T02:51:58.943Z,0.00
2022-09-18T02:52:59.074Z,0.00
2022-09-18T02:53:58.967Z,0.00
2022-09-18T02:54:58.932Z,0.00
2022-09-18T02:55:58.897Z,0.00
2022-09-18T02:56:58.883Z,0.00
2022-09-18T02:57:58.877Z,0.00
2022-09-18T02:58:58.877Z,0.00
2022-09-18T02:59:58.874Z,0.00
2022-09-18T03:00:58.838Z,0.00
2022-09-18T03:01:59.037Z,0.00
2022-09-18T03:02:58.927Z,0.00
2022-09-18T03:03:58.809Z,0.00
2022-09-18T03:04:58.820Z,0.00
2022-09-18T03:05:58.787Z,0.00
2022-09-18T03:06:58.771Z,0.00
2022-09-18T03:07:58.776Z,0.00
2022-09-18T03:08:58.748Z,0.00
2022-09-18T03:09:58.762Z,0.00
2022-09-18T03:10:58.731Z,0.00
2022-09-18T03:11:58.720Z,0.00
2022-09-18T03:12:58.706Z,0.00
2022-09-18T03:13:58.697Z,0.00
2022-09-18T03:14:58.883Z,0.00
2022-09-18T03:15:58.737Z,0.00
2022-09-18T03:16:58.683Z,0.00
2022-09-18T03:17:58.789Z,0.00
2022-09-18T03:18:58.665Z,0.00
2022-09-18T03:19:58.648Z,0.00
2022-09-18T03:20:58.733Z,0.00
2022-09-18T03:21:58.630Z,0.00
2022-09-18T03:22:58.727Z,0.00
2022-09-18T03:23:58.645Z,0.00
2022-09-18T03:24:58.712Z,0.00
2022-09-18T03:25:58.587Z,0.00
2022-09-18T03:26:58.732Z,0.00
2022-09-18T03:27:58.540Z,0.00
2022-09-18T03:28:58.624Z,0.00
2022-09-18T03:29:58.515Z,0.00
2022-09-18T03:30:58.690Z,0.00
2022-09-18T03:31:58.516Z,0.00
2022-09-18T03:32:58.525Z,0.00
2022-09-18T03:33:58.473Z,0.00
2022-09-18T03:34:58.472Z,0.00
2022-09-18T03:35:58.470Z,0.00
2022-09-18T03:36:58.439Z,0.00
2022-09-18T03:37:58.434Z,0.00
2022-09-18T03:38:58.555Z,0.00
2022-09-18T03:39:58.467Z,0.00
2022-09-18T03:40:58.407Z,0.00
2022-09-18T03:41:58.384Z,0.00
2022-09-18T03:42:58.375Z,0.00
2022-09-18T03:43:58.368Z,0.00
2022-09-18T03:44:58.375Z,0.00
2022-09-18T03:45:58.333Z,0.00
2022-09-18T03:46:58.520Z,0.00
2022-09-18T03:47:58.313Z,0.00
2022-09-18T03:48:58.300Z,0.00
2022-09-18T03:49:58.289Z,0.00
2022-09-18T03:50:58.298Z,0.00
2022-09-18T03:51:58.271Z,0.00
2022-09-18T03:52:58.254Z,0.00
2022-09-18T03:53:58.248Z,0.00
2022-09-18T03:54:58.237Z,0.00
2022-09-18T03:55:58.275Z,0.00
2022-09-18T03:56:58.227Z,0.00
2022-09-18T03:57:58.202Z,0.00
2022-09-18T03:58:58.189Z,0.00
2022-09-18T03:59:58.177Z,0.00
2022-09-18T04:00:58.181Z,0.00
2022-09-18T04:01:58.231Z,0.00
2022-09-18T04:02:58.432Z,0.00
2022-09-18T04:03:58.129Z,0.00
2022-09-18T04:04:58.161Z,0.00
2022-09-18T04:05:58.138Z,0.00
2022-09-18T04:06:58.094Z,0.00
2022-09-18T04:07:58.088Z,0.00
2022-09-18T04:08:58.072Z,0.00
2022-09-18T04:09:58.060Z,0.00
2022-09-18T04:10:58.069Z,0.00
2022-09-18T04:11:58.068Z,0.00
2022-09-18T04:12:58.024Z,0.00
2022-09-18T04:13:58.017Z,0.00
2022-09-18T04:14:58.005Z,0.00
2022-09-18T04:15:58.035Z,0.00
2022-09-18T04:16:58.021Z,0.00
2022-09-18T04:17:57.975Z,0.00
2022-09-18T04:18:58.074Z,0.00
2022-09-18T04:19:57.950Z,0.00
2022-09-18T04:20:57.935Z,0.00
2022-09-18T04:21:57.954Z,0.00
2022-09-18T04:22:57.912Z,0.00
2022-09-18T04:23:57.904Z,0.00
2022-09-18T04:24:57.892Z,0.00
2022-09-18T04:25:57.879Z,0.00
2022-09-18T04:26:57.910Z,0.00
2022-09-18T04:27:57.868Z,0.00
2022-09-18T04:28:57.843Z,0.00
2022-09-18T04:29:57.858Z,0.00
2022-09-18T04:30:57.864Z,0.00
2022-09-18T04:31:57.840Z,0.00
2022-09-18T04:32:57.827Z,0.00
2022-09-18T04:33:57.794Z,0.00
2022-09-18T04:34:57.897Z,0.00
2022-09-18T04:35:57.769Z,0.00
2022-09-18T04:36:57.777Z,0.00
2022-09-18T04:37:57.744Z,0.00
2022-09-18T04:38:57.739Z,0.00
2022-09-18T04:39:57.798Z,0.00
2022-09-18T04:40:57.709Z,0.00
2022-09-18T04:41:57.721Z,0.00
2022-09-18T04:42:57.692Z,0.00
2022-09-18T04:43:57.699Z,0.00
2022-09-18T04:44:57.666Z,0.00
2022-09-18T04:45:57.659Z,0.00
2022-09-18T04:46:57.739Z,0.00
2022-09-18T04:47:57.632Z,0.00
2022-09-18T04:48:57.621Z,0.00
2022-09-18T04:49:57.612Z,0.00
2022-09-18T04:50:57.707Z,0.00
2022-09-18T04:51:57.586Z,0.00
2022-09-18T04:52:57.597Z,0.00
2022-09-18T04:53:57.565Z,0.00
2022-09-18T04:54:57.558Z,0.00
2022-09-18T04:55:57.544Z,0.00
2022-09-18T04:56:57.713Z,0.00
2022-09-18T04:57:57.521Z,0.00
2022-09-18T04:58:57.527Z,0.00
2022-09-18T04:59:57.497Z,0.00
2022-09-18T05:00:57.541Z,0.00
2022-09-18T05:01:57.530Z,0.00
2022-09-18T05:02:59.498Z,0.00
2022-09-18T05:03:57.450Z,0.00
2022-09-18T05:04:57.444Z,0.00
2022-09-18T05:05:57.451Z,5.62
2022-09-18T05:06:57.531Z,5.62
2022-09-18T05:07:57.433Z,5.62
2022-09-18T05:08:57.418Z,5.62
2022-09-18T05:09:57.407Z,5.62
2022-09-18T05:10:57.373Z,5.62
2022-09-18T05:11:57.363Z,5.62
2022-09-18T05:12:57.353Z,5.62
2022-09-18T05:13:57.364Z,11.25
2022-09-18T05:14:57.326Z,11.25
2022-09-18T05:15:57.380Z,11.25
2022-09-18T05:16:57.310Z,11.25
2022-09-18T05:17:57.303Z,11.25
2022-09-18T05:18:57.305Z,11.25
2022-09-18T05:19:57.271Z,11.25
2022-09-18T05:20:57.260Z,11.25
2022-09-18T05:21:57.251Z,11.25
2022-09-18T05:22:57.357Z,11.25
2022-09-18T05:23:57.229Z,16.88
2022-09-18T05:24:57.240Z,16.88
2022-09-18T05:25:57.206Z,16.88
2022-09-18T05:26:57.197Z,16.88
2022-09-18T05:27:57.186Z,16.88
2022-09-18T05:28:57.198Z,16.88
2022-09-18T05:29:57.161Z,16.88
2022-09-18T05:30:57.214Z,16.88
2022-09-18T05:31:57.139Z,22.50
2022-09-18T05:32:59.158Z,22.50
2022-09-18T05:33:57.113Z,22.50
2022-09-18T05:34:57.106Z,22.50
2022-09-18T05:35:57.214Z,22.50
2022-09-18T05:36:57.081Z,28.12
2022-09-18T05:37:57.076Z,28.12
2022-09-18T05:38:57.175Z,28.12
2022-09-18T05:39:57.081Z,28.12
2022-09-18T05:40:57.059Z,33.75
2022-09-18T05:41:57.026Z,33.75
2022-09-18T05:42:57.038Z,33.75
2022-09-18T05:43:57.006Z,33.75
2022-09-18T05:45:01.642Z,39.38
2022-09-18T05:45:56.990Z,33.75
2022-09-18T05:46:57.043Z,39.38
2022-09-18T05:47:56.955Z,33.75
2022-09-18T05:48:56.953Z,39.38
2022-09-18T05:49:56.935Z,45.00
2022-09-18T05:50:56.954Z,45.00
2022-09-18T05:51:56.910Z,45.00
2022-09-18T05:52:56.906Z,39.38
2022-09-18T05:53:56.956Z,45.00
2022-09-18T05:54:56.998Z,45.00
2022-09-18T05:55:56.889Z,45.00
2022-09-18T05:56:56.859Z,50.62
2022-09-18T05:57:56.846Z,45.00
2022-09-18T05:58:56.867Z,50.62
2022-09-18T05:59:56.830Z,56.25
2022-09-18T06:00:56.815Z,61.88
2022-09-18T06:01:56.845Z,61.88
2022-09-18T06:02:56.845Z,67.50
2022-09-18T06:03:56.781Z,73.12
2022-09-18T06:04:56.789Z,61.88
2022-09-18T06:05:56.756Z,56.25
2022-09-18T06:06:56.751Z,50.62
2022-09-18T06:07:59.749Z,50.62
2022-09-18T06:08:56.732Z,50.62
2022-09-18T06:09:56.709Z,50.62
2022-09-18T06:10:56.826Z,50.62
2022-09-18T06:11:56.690Z,45.00
2022-09-18T06:12:56.700Z,45.00
2022-09-18T06:13:56.664Z,45.00
2022-09-18T06:14:56.684Z,39.38
2022-09-18T06:15:56.666Z,39.38
2022-09-18T06:16:56.638Z,39.38
2022-09-18T06:17:56.637Z,50.62
2022-09-18T06:18:58.395Z,50.62
2022-09-18T06:19:56.596Z,61.88
2022-09-18T06:20:56.594Z,56.25
2022-09-18T06:21:56.595Z,56.25
2022-09-18T06:22:56.567Z,56.25
2022-09-18T06:23:56.577Z,61.88
2022-09-18T06:24:56.548Z,67.50
2022-09-18T06:25:56.528Z,78.75
2022-09-18T06:26:56.648Z,67.50
2022-09-18T06:27:56.506Z,67.50
2022-09-18T06:28:56.517Z,61.88
2022-09-18T06:29:56.489Z,78.75
2022-09-18T06:30:56.498Z,84.38
2022-09-18T06:31:56.548Z,90.00
2022-09-18T06:32:56.453Z,101.25
2022-09-18T06:33:56.461Z,95.62
2022-09-18T06:34:56.430Z,95.62
2022-09-18T06:35:56.415Z,90.00
2022-09-18T06:36:56.410Z,95.62
2022-09-18T06:37:56.411Z,101.25
2022-09-18T06:38:56.381Z,101.25
2022-09-18T06:39:56.398Z,106.88
2022-09-18T06:40:56.363Z,123.75
2022-09-18T06:41:56.369Z,135.00
2022-09-18T06:42:56.453Z,140.62
2022-09-18T06:43:56.325Z,146.25
2022-09-18T06:44:56.313Z,135.00
2022-09-18T06:45:56.333Z,140.62
2022-09-18T06:46:56.337Z,163.12
2022-09-18T06:47:56.281Z,151.88
2022-09-18T06:48:56.272Z,157.50
2022-09-18T06:49:56.255Z,168.75
2022-09-18T06:50:56.270Z,163.12
2022-09-18T06:51:56.237Z,151.88
2022-09-18T06:52:56.245Z,129.38
2022-09-18T06:53:56.212Z,129.38
2022-09-18T06:54:56.222Z,129.38
2022-09-18T06:55:56.207Z,123.75
2022-09-18T06:56:56.181Z,112.50
2022-09-18T06:57:56.185Z,90.00
2022-09-18T06:58:56.274Z,84.38
2022-09-18T06:59:56.163Z,84.38
2022-09-18T07:00:56.184Z,84.38
2022-09-18T07:01:56.172Z,78.75
2022-09-18T07:02:56.134Z,73.12
2022-09-18T07:03:56.117Z,67.50
2022-09-18T07:04:56.090Z,73.12
2022-09-18T07:05:56.263Z,78.75
2022-09-18T07:06:56.089Z,78.75
2022-09-18T07:07:56.053Z,90.00
2022-09-18T07:08:56.042Z,95.62
2022-09-18T07:09:56.033Z,95.62
2022-09-18T07:10:56.020Z,84.38
2022-09-18T07:11:56.007Z,78.75
2022-09-18T07:12:56.021Z,67.50
2022-09-18T07:13:55.985Z,84.38
2022-09-18T07:14:56.120Z,95.62
2022-09-18T07:15:56.010Z,95.62
2022-09-18T07:16:55.957Z,106.88
2022-09-18T07:17:55.960Z,106.88
2022-09-18T07:18:55.930Z,78.75
2022-09-18T07:19:55.920Z,61.88
2022-09-18T07:20:55.928Z,73.12
2022-09-18T07:21:55.896Z,78.75
2022-09-18T07:22:55.884Z,84.38
2022-09-18T07:23:55.893Z,73.12
2022-09-18T07:24:55.868Z,73.12
2022-09-18T07:25:55.853Z,73.12
2022-09-18T07:26:55.847Z,67.50
2022-09-18T07:27:55.830Z,61.88
2022-09-18T07:28:55.841Z,61.88
2022-09-18T07:29:55.805Z,78.75
2022-09-18T07:30:55.966Z,73.12
2022-09-18T07:31:55.810Z,73.12
2022-09-18T07:32:55.776Z,67.50
2022-09-18T07:33:55.761Z,78.75
2022-09-18T07:34:55.750Z,67.50
2022-09-18T07:35:55.741Z,45.00
2022-09-18T07:36:55.747Z,39.38
2022-09-18T07:37:55.714Z,61.88
2022-09-18T07:38:55.708Z,61.88
2022-09-18T07:39:55.739Z,50.62
2022-09-18T07:40:55.685Z,61.88
2022-09-18T07:41:55.697Z,61.88
2022-09-18T07:42:55.659Z,73.12
2022-09-18T07:43:55.647Z,67.50
2022-09-18T07:44:55.649Z,50.62
2022-09-18T07:45:55.627Z,50.62
2022-09-18T07:46:55.814Z,56.25
2022-09-18T07:47:55.604Z,67.50
2022-09-18T07:48:55.593Z,73.12
2022-09-18T07:49:55.599Z,84.38
2022-09-18T07:50:55.571Z,73.12
2022-09-18T07:51:55.589Z,50.62
2022-09-18T07:52:55.548Z,45.00
2022-09-18T07:53:55.536Z,56.25
2022-09-18T07:54:55.537Z,45.00
2022-09-18T07:55:55.519Z,56.25
2022-09-18T07:56:55.525Z,67.50
2022-09-18T07:57:55.494Z,84.38
2022-09-18T07:58:55.484Z,95.62
2022-09-18T07:59:55.472Z,95.62
2022-09-18T08:00:55.458Z,95.62
2022-09-18T08:01:56.079Z,95.62
2022-09-18T08:02:55.735Z,95.62
2022-09-18T08:03:55.422Z,90.00
2022-09-18T08:04:55.439Z,90.00
2022-09-18T08:05:55.399Z,95.62
2022-09-18T08:06:55.420Z,90.00
2022-09-18T08:07:55.375Z,90.00
2022-09-18T08:08:55.439Z,90.00
2022-09-18T08:09:55.357Z,84.38
2022-09-18T08:10:55.343Z,95.62
2022-09-18T08:11:55.329Z,106.88
2022-09-18T08:12:55.345Z,112.50
2022-09-18T08:13:55.306Z,118.12
2022-09-18T08:14:55.299Z,118.12
2022-09-18T08:15:55.374Z,106.88
2022-09-18T08:16:55.277Z,106.88
2022-09-18T08:17:55.266Z,112.50
2022-09-18T08:18:55.368Z,101.25
2022-09-18T08:19:55.265Z,106.88
2022-09-18T08:20:55.233Z,106.88
2022-09-18T08:21:55.223Z,106.88
2022-09-18T08:22:55.214Z,106.88
2022-09-18T08:23:55.215Z,106.88
2022-09-18T08:24:55.244Z,106.88
2022-09-18T08:25:55.200Z,101.25
2022-09-18T08:26:55.165Z,95.62
2022-09-18T08:27:55.152Z,95.62
2022-09-18T08:28:55.173Z,101.25
2022-09-18T08:29:55.127Z,101.25
2022-09-18T08:30:55.141Z,95.62
2022-09-18T08:31:55.162Z,95.62
2022-09-18T08:32:55.095Z,95.62
2022-09-18T08:33:55.084Z,95.62
2022-09-18T08:34:55.219Z,95.62
2022-09-18T08:35:55.084Z,95.62
2022-09-18T08:36:55.052Z,90.00
2022-09-18T08:37:55.038Z,90.00
2022-09-18T08:38:55.030Z,95.62
2022-09-18T08:39:55.089Z,95.62
2022-09-18T08:40:55.026Z,95.62
2022-09-18T08:41:55.023Z,90.00
2022-09-18T08:42:54.984Z,84.38
2022-09-18T08:43:54.971Z,84.38
2022-09-18T08:44:54.960Z,84.38
2022-09-18T08:45:54.944Z,84.38
2022-09-18T08:46:55.045Z,90.00
2022-09-18T08:47:54.922Z,101.25
2022-09-18T08:48:54.939Z,112.50
2022-09-18T08:49:54.903Z,129.38
2022-09-18T08:50:55.005Z,135.00
2022-09-18T08:51:54.878Z,129.38
2022-09-18T08:52:54.869Z,129.38
2022-09-18T08:53:54.957Z,123.75
2022-09-18T08:54:54.849Z,129.38
2022-09-18T08:55:54.835Z,135.00
2022-09-18T08:56:54.964Z,146.25
2022-09-18T08:57:54.814Z,146.25
2022-09-18T08:58:54.843Z,129.38
2022-09-18T08:59:54.788Z,118.12
2022-09-18T09:00:54.799Z,118.12
2022-09-18T09:01:54.868Z,123.75
2022-09-18T09:02:54.761Z,129.38
2022-09-18T09:03:54.748Z,146.25
2022-09-18T09:04:54.736Z,163.12
2022-09-18T09:05:55.030Z,180.00
2022-09-18T09:06:54.835Z,185.62
2022-09-18T09:07:54.713Z,191.25
2022-09-18T09:08:54.718Z,185.62
2022-09-18T09:09:54.680Z,180.00
2022-09-18T09:10:54.692Z,174.38
2022-09-18T09:11:54.656Z,174.38
2022-09-18T09:12:54.669Z,174.38
2022-09-18T09:13:54.631Z,168.75
2022-09-18T09:14:57.493Z,151.88
2022-09-18T09:15:54.670Z,146.25
2022-09-18T09:16:54.600Z,151.88
2022-09-18T09:17:54.586Z,151.88
2022-09-18T09:18:54.606Z,157.50
2022-09-18T09:19:54.564Z,157.50
2022-09-18T09:20:54.557Z,157.50
2022-09-18T09:21:54.542Z,151.88
2022-09-18T09:22:54.664Z,146.25
2022-09-18T09:23:54.517Z,140.62
2022-09-18T09:24:54.531Z,129.38
2022-09-18T09:25:54.523Z,123.75
2022-09-18T09:26:54.484Z,118.12
2022-09-18T09:27:54.486Z,118.12
2022-09-18T09:28:54.466Z,129.38
2022-09-18T09:29:54.453Z,135.00
2022-09-18T09:30:54.508Z,123.75
2022-09-18T09:31:54.560Z,112.50
2022-09-18T09:32:54.438Z,106.88
2022-09-18T09:33:54.404Z,95.62
2022-09-18T09:34:54.419Z,84.38
2022-09-18T09:35:54.389Z,78.75
2022-09-18T09:36:54.453Z,95.62
2022-09-18T09:37:54.357Z,90.00
2022-09-18T09:38:54.459Z,73.12
2022-09-18T09:39:54.391Z,73.12
2022-09-18T09:40:54.350Z,90.00
2022-09-18T09:41:54.318Z,84.38
2022-09-18T09:42:54.334Z,78.75
2022-09-18T09:43:54.292Z,101.25
2022-09-18T09:44:54.279Z,95.62
2022-09-18T09:45:54.288Z,90.00
2022-09-18T09:46:54.337Z,90.00
2022-09-18T09:47:54.243Z,84.38
2022-09-18T09:48:54.235Z,56.25
2022-09-18T09:49:54.248Z,45.00
2022-09-18T09:50:54.230Z,45.00
2022-09-18T09:51:54.210Z,61.88
2022-09-18T09:52:54.213Z,78.75
2022-09-18T09:53:54.186Z,56.25
2022-09-18T09:54:54.283Z,50.62
2022-09-18T09:55:54.174Z,39.38
2022-09-18T09:56:54.147Z,28.12
2022-09-18T09:57:54.135Z,28.12
2022-09-18T09:58:54.120Z,28.12
2022-09-18T09:59:54.131Z,33.75
2022-09-18T10:00:54.150Z,33.75
2022-09-18T10:01:54.185Z,39.38
2022-09-18T10:02:54.075Z,45.00
2022-09-18T10:03:54.066Z,39.38
2022-09-18T10:04:54.072Z,39.38
2022-09-18T10:05:54.111Z,39.38
2022-09-18T10:06:54.058Z,50.62
2022-09-18T10:07:54.021Z,56.25
2022-09-18T10:08:54.010Z,56.25
2022-09-18T10:09:54.002Z,50.62
2022-09-18T10:10:54.131Z,50.62
2022-09-18T10:11:57.150Z,45.00
2022-09-18T10:12:54.258Z,50.62
2022-09-18T10:13:53.955Z,56.25
2022-09-18T10:14:53.941Z,61.88
2022-09-18T10:15:54.035Z,61.88
2022-09-18T10:16:53.918Z,67.50
2022-09-18T10:17:53.905Z,78.75
2022-09-18T10:18:53.914Z,90.00
2022-09-18T10:19:53.886Z,95.62
2022-09-18T10:20:53.871Z,90.00
2022-09-18T10:21:53.881Z,78.75
2022-09-18T10:22:53.851Z,73.12
2022-09-18T10:23:53.841Z,73.12
2022-09-18T10:24:53.824Z,67.50
2022-09-18T10:25:53.837Z,67.50
2022-09-18T10:26:53.912Z,67.50
2022-09-18T10:27:53.792Z,67.50
2022-09-18T10:28:53.822Z,67.50
2022-09-18T10:29:53.769Z,78.75
2022-09-18T10:30:53.776Z,84.38
2022-09-18T10:31:53.799Z,78.75
2022-09-18T10:32:53.733Z,73.12
2022-09-18T10:33:53.743Z,67.50
2022-09-18T10:34:53.737Z,56.25
2022-09-18T10:35:53.701Z,56.25
2022-09-18T10:36:53.691Z,61.88
2022-09-18T10:37:53.785Z,73.12
2022-09-18T10:38:53.666Z,67.50
2022-09-18T10:39:53.811Z,67.50
2022-09-18T10:40:53.643Z,61.88
2022-09-18T10:41:53.634Z,56.25
2022-09-18T10:42:53.734Z,67.50
2022-09-18T10:43:53.610Z,78.75
2022-09-18T10:44:55.793Z,61.88
2022-09-18T10:45:53.588Z,56.25
2022-09-18T10:46:53.678Z,56.25
2022-09-18T10:47:53.568Z,45.00
2022-09-18T10:48:53.555Z,45.00
2022-09-18T10:49:53.566Z,45.00
2022-09-18T10:50:53.532Z,39.38
2022-09-18T10:51:53.524Z,39.38
2022-09-18T10:52:53.530Z,45.00
2022-09-18T10:53:53.501Z,39.38
2022-09-18T10:54:53.513Z,45.00
2022-09-18T10:55:55.912Z,61.88
2022-09-18T10:56:53.463Z,78.75
2022-09-18T10:57:53.462Z,90.00
2022-09-18T10:58:53.556Z,84.38
2022-09-18T10:59:53.459Z,90.00
2022-09-18T11:00:53.469Z,84.38
2022-09-18T11:01:53.485Z,90.00
2022-09-18T11:02:53.394Z,78.75
2022-09-18T11:03:53.388Z,78.75
2022-09-18T11:04:53.378Z,73.12
2022-09-18T11:05:53.385Z,73.12
2022-09-18T11:06:53.374Z,78.75
2022-09-18T11:07:53.342Z,78.75
2022-09-18T11:08:53.332Z,73.12
2022-09-18T11:09:53.319Z,67.50
2022-09-18T11:10:53.654Z,61.88
2022-09-18T11:11:53.297Z,61.88
2022-09-18T11:12:55.679Z,73.12
2022-09-18T11:13:53.274Z,84.38
2022-09-18T11:14:53.401Z,90.00
2022-09-18T11:15:53.751Z,84.38
2022-09-18T11:16:53.239Z,90.00
2022-09-18T11:17:53.231Z,95.62
2022-09-18T11:18:53.219Z,95.62
2022-09-18T11:19:53.234Z,95.62
2022-09-18T11:20:53.194Z,101.25
2022-09-18T11:21:53.184Z,101.25
2022-09-18T11:22:53.171Z,101.25
2022-09-18T11:23:53.167Z,101.25
2022-09-18T11:24:53.149Z,106.88
2022-09-18T11:25:53.554Z,112.50
2022-09-18T11:26:53.129Z,118.12
2022-09-18T11:27:53.116Z,118.12
2022-09-18T11:28:53.105Z,123.75
2022-09-18T11:29:53.095Z,118.12
2022-09-18T11:30:53.215Z,112.50
2022-09-18T11:31:53.181Z,106.88
2022-09-18T11:32:53.102Z,106.88
2022-09-18T11:33:53.059Z,106.88
2022-09-18T11:34:53.056Z,106.88
2022-09-18T11:35:53.051Z,106.88
2022-09-18T11:36:53.013Z,95.62
2022-09-18T11:37:53.005Z,90.00
2022-09-18T11:38:52.997Z,90.00
2022-09-18T11:39:53.024Z,90.00
2022-09-18T11:40:52.992Z,90.00
2022-09-18T11:41:52.959Z,90.00
2022-09-18T11:42:52.948Z,84.38
2022-09-18T11:43:52.938Z,78.75
2022-09-18T11:44:52.922Z,67.50
2022-09-18T11:45:52.935Z,56.25
2022-09-18T11:46:53.083Z,45.00
2022-09-18T11:47:52.887Z,39.38
2022-09-18T11:48:52.880Z,45.00
2022-09-18T11:49:52.864Z,45.00
2022-09-18T11:50:52.877Z,50.62
2022-09-18T11:51:52.844Z,45.00
2022-09-18T11:52:52.830Z,45.00
2022-09-18T11:53:52.823Z,56.25
2022-09-18T11:54:52.828Z,84.38
2022-09-18T11:55:52.797Z,95.62
2022-09-18T11:56:52.827Z,106.88
2022-09-18T11:57:52.778Z,112.50
2022-09-18T11:58:52.787Z,112.50
2022-09-18T11:59:52.752Z,112.50
2022-09-18T12:00:52.829Z,118.12
2022-09-18T12:01:52.790Z,112.50
2022-09-18T12:02:52.983Z,106.88
2022-09-18T12:03:52.732Z,101.25
2022-09-18T12:04:52.696Z,95.62
2022-09-18T12:05:52.690Z,90.00
2022-09-18T12:06:52.674Z,90.00
2022-09-18T12:07:51.309Z,84.38
2022-09-18T12:08:51.293Z,84.38
2022-09-18T12:09:51.301Z,84.38
2022-09-18T12:10:51.267Z,84.38
2022-09-18T12:11:51.260Z,84.38
2022-09-18T12:12:51.246Z,78.75
2022-09-18T12:13:51.241Z,78.75
2022-09-18T12:14:51.244Z,84.38
2022-09-18T12:15:51.246Z,90.00
2022-09-18T12:16:51.196Z,90.00
2022-09-18T12:17:51.185Z,84.38
2022-09-18T12:18:51.287Z,78.75
2022-09-18T12:19:51.183Z,78.75
2022-09-18T12:20:51.151Z,73.12
2022-09-18T12:21:51.137Z,73.12
2022-09-18T12:22:51.126Z,73.12
2022-09-18T12:23:51.118Z,73.12
2022-09-18T12:24:51.120Z,73.12
2022-09-18T12:25:51.088Z,78.75
2022-09-18T12:26:51.073Z,78.75
2022-09-18T12:27:51.067Z,78.75
2022-09-18T12:28:51.072Z,78.75
2022-09-18T12:29:51.040Z,78.75
2022-09-18T12:30:51.029Z,73.12
2022-09-18T12:31:51.063Z,73.12
2022-09-18T12:32:51.000Z,73.12
2022-09-18T12:33:50.990Z,73.12
2022-09-18T12:34:51.115Z,78.75
2022-09-18T12:35:50.967Z,73.12
2022-09-18T12:36:50.970Z,73.12
2022-09-18T12:37:50.941Z,73.12
2022-09-18T12:38:51.599Z,73.12
2022-09-18T12:39:51.638Z,78.75
2022-09-18T12:40:51.595Z,84.38
2022-09-18T12:41:51.569Z,84.38
2022-09-18T12:42:51.564Z,73.12
2022-09-18T12:43:51.540Z,67.50
2022-09-18T12:44:51.548Z,73.12
2022-09-18T12:45:51.584Z,78.75
2022-09-18T12:46:51.511Z,78.75
2022-09-18T12:47:51.511Z,78.75
2022-09-18T12:48:51.479Z,73.12
2022-09-18T12:49:51.476Z,73.12
2022-09-18T12:50:51.595Z,78.75
2022-09-18T12:51:51.449Z,78.75
2022-09-18T12:53:08.662Z,73.12
2022-09-18T12:53:52.421Z,78.75
2022-09-18T12:54:51.428Z,78.75
2022-09-18T12:55:51.422Z,78.75
2022-09-18T12:56:51.382Z,78.75
2022-09-18T12:57:51.375Z,78.75
2022-09-18T12:58:51.361Z,73.12